Time;durP1;ratioP1;P1;durP2;ratioP2;P2;SDS_P1;SDS_P2;PMS_P1;PMS_P2;Temp;Humidity;BMP_temperature;BMP_pressure;BME280_temperature;BME280_humidity;BME280_pressure;Samples;Min_cycle;Max_cycle;Signal;HPM_P1;HPM_P2
2023/05/09 00:01:51;;;;;;;11.10;2.45;;;34.00;24.90;;;;;;5015306;28;20026;-60
2023/05/09 00:04:18;;;;;;;4.38;1.67;;;33.90;25.20;;;;;;5017895;28;20026;-61
2023/05/09 00:06:45;;;;;;;10.48;1.90;;;33.80;25.10;;;;;;5017567;28;20025;-61
2023/05/09 00:09:11;;;;;;;7.30;1.83;;;33.80;25.10;;;;;;5016532;28;20057;-63
2023/05/09 00:11:38;;;;;;;7.28;1.42;;;33.70;25.40;;;;;;5015807;28;20024;-64
2023/05/09 00:14:05;;;;;;;11.02;1.85;;;33.60;25.10;;;;;;5015842;28;20072;-62
2023/05/09 00:16:32;;;;;;;8.77;3.53;;;33.60;25.30;;;;;;5015762;28;20057;-64
2023/05/09 00:18:59;;;;;;;10.00;2.60;;;33.60;25.40;;;;;;5015190;28;20038;-60
2023/05/09 00:21:25;;;;;;;9.07;1.80;;;33.50;25.60;;;;;;5016452;28;20013;-61
2023/05/09 00:23:51;;;;;;;4.65;1.50;;;33.40;25.50;;;;;;5014406;28;20040;-60
2023/05/09 00:26:18;;;;;;;7.05;1.85;;;33.30;25.10;;;;;;5015736;28;20542;-62
2023/05/09 00:28:44;;;;;;;5.72;1.88;;;33.30;25.40;;;;;;5015572;28;20049;-63
2023/05/09 00:31:10;;;;;;;7.57;1.88;;;33.40;25.40;;;;;;5013777;28;20056;-63
2023/05/09 00:33:37;;;;;;;7.00;1.67;;;33.30;25.30;;;;;;5013947;28;20056;-63
2023/05/09 00:36:03;;;;;;;5.13;1.48;;;33.30;24.80;;;;;;5015854;28;20030;-60
2023/05/09 00:38:30;;;;;;;6.93;1.38;;;33.30;25.00;;;;;;5015814;28;20057;-65
2023/05/09 00:40:56;;;;;;;13.07;1.65;;;33.30;24.80;;;;;;5015680;28;20434;-64
2023/05/09 00:43:23;;;;;;;5.63;1.50;;;33.10;25.10;;;;;;5014332;28;20029;-66
2023/05/09 00:45:49;;;;;;;8.40;1.80;;;33.10;25.20;;;;;;5015504;28;20100;-65
2023/05/09 00:48:16;;;;;;;7.80;1.60;;;33.00;25.40;;;;;;5010949;28;20046;-67
2023/05/09 00:50:43;;;;;;;5.75;1.30;;;33.00;25.30;;;;;;5011457;28;20481;-65
2023/05/09 00:53:09;;;;;;;9.20;3.30;;;33.00;25.10;;;;;;5012443;28;20096;-62
2023/05/09 00:55:36;;;;;;;6.15;1.70;;;33.00;25.40;;;;;;5011481;28;20026;-64
2023/05/09 00:58:05;;;;;;;6.40;1.92;;;32.90;25.10;;;;;;5012496;28;20486;-64
2023/05/09 01:00:31;;;;;;;6.80;2.05;;;32.80;25.80;;;;;;5012892;28;20393;-64
2023/05/09 01:02:57;;;;;;;14.65;1.90;;;32.70;25.80;;;;;;5013256;28;20022;-64
2023/05/09 01:05:32;;;;;;;6.90;1.83;;;32.60;25.70;;;;;;5014693;28;20111;-62
2023/05/09 01:08:17;;;;;;;7.50;1.60;;;32.70;25.40;;;;;;5012020;28;20572;-65
2023/05/09 01:10:50;;;;;;;8.50;1.77;;;32.60;25.40;;;;;;4998306;28;20402;-63
2023/05/09 01:13:28;;;;;;;6.03;1.85;;;32.40;26.20;;;;;;5009435;28;20053;-66
2023/05/09 01:16:34;;;;;;;12.10;2.17;;;32.50;26.30;;;;;;5012054;28;20030;-64
2023/05/09 01:19:09;;;;;;;12.30;2.08;;;32.50;26.90;;;;;;5011338;28;20056;-65
2023/05/09 01:21:43;;;;;;;19.65;2.20;;;32.40;27.10;;;;;;5011218;28;20029;-62
2023/05/09 01:24:46;;;;;;;43.03;3.20;;;32.30;27.20;;;;;;5011585;28;20385;-64
2023/05/09 01:27:46;;;;;;;17.38;2.50;;;32.30;27.40;;;;;;5014408;28;20041;-66
2023/05/09 01:30:15;;;;;;;14.13;2.13;;;32.20;27.50;;;;;;5011622;28;20371;-70
2023/05/09 01:32:45;;;;;;;14.65;2.22;;;32.20;27.50;;;;;;5012223;28;20029;-66
2023/05/09 01:35:13;;;;;;;31.60;2.63;;;32.30;27.30;;;;;;5013368;28;20027;-72
2023/05/09 01:37:42;;;;;;;8.23;2.10;;;32.70;27.00;;;;;;4994985;28;20382;-70
2023/05/09 01:40:15;;;;;;;14.02;2.60;;;32.70;26.30;;;;;;5014750;28;20022;-68
2023/05/09 01:43:07;;;;;;;11.68;2.50;;;32.40;26.40;;;;;;5010629;28;20037;-69
2023/05/09 01:45:35;;;;;;;27.00;2.67;;;32.20;26.90;;;;;;5013101;28;20346;-69
2023/05/09 01:48:01;;;;;;;13.38;2.38;;;32.10;27.10;;;;;;4990618;28;20053;-63
2023/05/09 01:50:29;;;;;;;14.48;2.65;;;32.50;26.20;;;;;;5013972;28;20506;-69
2023/05/09 01:53:00;;;;;;;12.13;2.30;;;32.80;26.00;;;;;;5011130;28;20062;-63
2023/05/09 01:55:32;;;;;;;20.42;2.80;;;32.60;26.30;;;;;;5012652;28;20117;-65
2023/05/09 01:58:00;;;;;;;12.77;3.10;;;31.90;27.10;;;;;;5011950;28;20452;-65
2023/05/09 02:00:27;;;;;;;22.55;3.10;;;31.50;27.70;;;;;;5011436;28;20048;-66
2023/05/09 02:02:54;;;;;;;27.55;3.22;;;31.20;28.00;;;;;;5011704;28;20044;-64
2023/05/09 02:05:25;;;;;;;28.75;3.85;;;30.90;28.10;;;;;;5011718;28;20025;-64
2023/05/09 02:07:58;;;;;;;28.55;3.92;;;30.60;28.30;;;;;;5011164;28;20405;-65
2023/05/09 02:10:26;;;;;;;20.90;3.55;;;30.40;28.80;;;;;;5014149;28;20042;-66
2023/05/09 02:12:54;;;;;;;19.20;3.97;;;30.20;28.40;;;;;;5015041;28;20510;-66
2023/05/09 02:15:21;;;;;;;29.98;3.92;;;30.00;28.20;;;;;;5011078;28;20071;-65
2023/05/09 02:17:48;;;;;;;27.05;4.28;;;29.80;28.30;;;;;;5011967;28;20413;-66
2023/05/09 02:20:14;;;;;;;32.03;3.78;;;29.70;27.60;;;;;;5011568;28;20049;-59
2023/05/09 02:22:42;;;;;;;39.00;3.80;;;29.60;27.30;;;;;;5013719;28;20045;-60
2023/05/09 02:25:14;;;;;;;25.67;3.65;;;29.50;27.60;;;;;;5014164;28;20130;-61
2023/05/09 02:27:42;;;;;;;17.45;3.40;;;29.40;28.00;;;;;;5011154;28;20407;-61
2023/05/09 02:30:14;;;;;;;18.58;3.53;;;29.30;27.80;;;;;;5009051;28;20040;-64
2023/05/09 02:32:44;;;;;;;16.45;3.15;;;29.10;28.00;;;;;;5010590;28;20465;-67
2023/05/09 02:35:12;;;;;;;24.17;2.70;;;29.10;28.10;;;;;;4995110;28;20390;-61
2023/05/09 02:37:38;;;;;;;20.30;2.92;;;29.00;28.50;;;;;;5007899;28;20526;-61
2023/05/09 02:40:08;;;;;;;18.33;2.80;;;28.90;28.40;;;;;;5010732;28;20493;-61
2023/05/09 02:42:34;;;;;;;27.52;3.47;;;28.80;28.70;;;;;;5010326;28;20054;-60
2023/05/09 02:45:01;;;;;;;23.70;3.10;;;28.70;29.10;;;;;;5011823;28;20139;-61
2023/05/09 02:47:27;;;;;;;22.80;3.42;;;28.70;29.40;;;;;;5011053;28;20080;-62
2023/05/09 02:49:54;;;;;;;18.33;2.95;;;28.60;29.40;;;;;;5010018;28;20494;-61
2023/05/09 02:52:20;;;;;;;13.70;3.25;;;28.50;29.00;;;;;;5012246;28;20131;-60
2023/05/09 02:54:47;;;;;;;7.05;2.53;;;28.40;28.70;;;;;;5013226;28;20104;-61
2023/05/09 02:57:13;;;;;;;16.90;3.10;;;28.40;29.00;;;;;;5012126;28;20468;-62
2023/05/09 02:59:40;;;;;;;75.15;5.57;;;28.30;28.90;;;;;;5012398;28;20094;-60
2023/05/09 03:02:06;;;;;;;14.80;3.10;;;28.30;29.00;;;;;;5010296;28;20517;-61
2023/05/09 03:04:33;;;;;;;9.38;2.75;;;28.30;29.20;;;;;;5008887;28;20051;-63
2023/05/09 03:06:59;;;;;;;19.02;3.17;;;28.20;29.00;;;;;;5008697;28;20751;-64
2023/05/09 03:09:25;;;;;;;13.45;2.92;;;28.10;28.90;;;;;;5010386;28;20052;-63
2023/05/09 03:11:52;;;;;;;20.27;3.08;;;28.00;29.00;;;;;;5010896;28;20036;-61
2023/05/09 03:14:18;;;;;;;18.98;3.47;;;28.00;28.90;;;;;;5010631;28;20634;-62
2023/05/09 03:16:44;;;;;;;19.92;3.25;;;28.00;28.80;;;;;;5014436;28;20074;-62
2023/05/09 03:19:11;;;;;;;19.60;3.45;;;27.90;28.70;;;;;;5012500;28;20092;-62
2023/05/09 03:21:37;;;;;;;22.20;3.22;;;27.90;28.70;;;;;;5017775;28;20838;-60
2023/05/09 03:24:04;;;;;;;17.20;2.78;;;27.80;28.60;;;;;;5015701;28;20058;-62
2023/05/09 03:26:31;;;;;;;14.90;2.67;;;27.70;28.50;;;;;;5016288;28;20074;-65
2023/05/09 03:28:57;;;;;;;19.17;3.08;;;27.70;28.40;;;;;;5014164;28;20050;-63
2023/05/09 03:31:24;;;;;;;12.20;2.45;;;27.60;28.40;;;;;;5014387;28;20393;-62
2023/05/09 03:33:50;;;;;;;15.23;2.53;;;27.60;28.40;;;;;;5015459;28;20467;-63
2023/05/09 03:36:17;;;;;;;22.13;3.63;;;27.50;28.20;;;;;;5015389;28;20077;-63
2023/05/09 03:38:43;;;;;;;15.38;3.22;;;27.50;28.10;;;;;;5015791;28;20439;-61
2023/05/09 03:41:11;;;;;;;21.25;3.20;;;27.50;28.00;;;;;;5015289;28;20105;-62
2023/05/09 03:43:37;;;;;;;14.60;2.80;;;27.40;27.90;;;;;;5016632;28;20064;-63
2023/05/09 03:46:05;;;;;;;15.65;2.58;;;27.40;27.90;;;;;;5014497;28;20042;-60
2023/05/09 03:48:31;;;;;;;37.65;4.55;;;27.30;27.70;;;;;;5013669;28;20206;-62
2023/05/09 03:50:57;;;;;;;31.30;4.32;;;27.30;27.80;;;;;;5016551;28;20085;-61
2023/05/09 03:53:24;;;;;;;14.90;3.03;;;27.20;28.00;;;;;;5017318;28;20055;-60
2023/05/09 03:55:50;;;;;;;16.25;3.80;;;27.20;27.90;;;;;;5014242;28;20580;-62
2023/05/09 03:58:18;;;;;;;31.05;4.45;;;27.20;27.90;;;;;;5015756;28;20067;-61
2023/05/09 04:00:44;;;;;;;32.10;6.53;;;27.10;28.10;;;;;;5016381;28;20691;-61
2023/05/09 04:03:11;;;;;;;22.35;3.25;;;27.00;28.00;;;;;;5016527;28;20080;-60
2023/05/09 04:05:38;;;;;;;11.20;2.70;;;26.90;28.10;;;;;;5013817;28;20051;-64
2023/05/09 04:08:04;;;;;;;20.02;3.05;;;26.90;28.00;;;;;;5013377;28;20064;-63
2023/05/09 04:10:31;;;;;;;14.02;2.63;;;26.90;28.00;;;;;;5014298;28;20101;-62
2023/05/09 04:12:58;;;;;;;16.83;2.97;;;26.80;27.70;;;;;;5014148;28;20240;-63
2023/05/09 04:15:24;;;;;;;22.13;2.95;;;26.80;27.70;;;;;;5013624;28;20042;-61
2023/05/09 04:17:50;;;;;;;28.20;5.20;;;26.80;27.90;;;;;;5014245;28;20105;-61
2023/05/09 04:20:17;;;;;;;18.92;5.75;;;26.70;27.80;;;;;;5012803;28;20041;-69
2023/05/09 04:22:43;;;;;;;14.20;2.50;;;26.60;27.90;;;;;;5017358;28;20042;-68
2023/05/09 04:25:12;;;;;;;16.27;2.95;;;26.50;27.80;;;;;;5015722;28;20489;-69
2023/05/09 04:27:38;;;;;;;16.00;3.03;;;26.50;27.80;;;;;;5012706;28;20612;-68
2023/05/09 04:30:06;;;;;;;13.82;3.10;;;26.50;28.00;;;;;;5013186;28;20109;-70
2023/05/09 04:32:32;;;;;;;11.45;2.83;;;26.40;27.90;;;;;;5013751;28;20137;-67
2023/05/09 04:34:58;;;;;;;16.70;3.90;;;26.40;28.00;;;;;;5013433;28;20034;-68
2023/05/09 04:37:25;;;;;;;16.80;2.72;;;26.40;28.10;;;;;;5012693;28;20021;-69
2023/05/09 04:39:51;;;;;;;13.10;3.40;;;26.30;28.20;;;;;;5011707;28;20052;-70
2023/05/09 04:42:17;;;;;;;14.90;3.60;;;26.30;28.60;;;;;;5015498;28;20515;-67
2023/05/09 04:44:44;;;;;;;12.82;2.97;;;26.20;28.40;;;;;;5013585;28;20065;-68
2023/05/09 04:47:10;;;;;;;19.13;7.53;;;26.20;28.50;;;;;;5015407;28;20074;-67
2023/05/09 04:49:37;;;;;;;22.45;7.07;;;26.10;28.60;;;;;;5013128;28;20083;-66
2023/05/09 04:52:03;;;;;;;18.08;5.40;;;26.10;28.70;;;;;;5015069;28;20098;-68
2023/05/09 04:54:29;;;;;;;26.83;9.55;;;26.00;28.70;;;;;;5013626;28;20051;-68
2023/05/09 04:56:56;;;;;;;25.35;7.78;;;25.90;28.80;;;;;;5012513;28;20519;-68
2023/05/09 04:59:23;;;;;;;15.15;3.90;;;25.90;29.00;;;;;;5014068;28;20052;-69
2023/05/09 05:01:49;;;;;;;11.95;3.92;;;25.90;28.90;;;;;;5014776;28;20734;-68
2023/05/09 05:04:15;;;;;;;12.32;4.40;;;25.80;29.00;;;;;;5015087;28;20040;-68
2023/05/09 05:06:42;;;;;;;16.65;5.10;;;25.70;28.90;;;;;;5013620;28;20762;-69
2023/05/09 05:09:09;;;;;;;19.45;5.80;;;25.70;28.90;;;;;;5014634;28;20058;-69
2023/05/09 05:11:35;;;;;;;22.95;8.45;;;25.70;28.90;;;;;;5014453;28;20142;-72
2023/05/09 05:14:02;;;;;;;33.13;10.32;;;25.60;28.80;;;;;;5016197;28;20045;-68
2023/05/09 05:16:28;;;;;;;19.17;8.15;;;25.50;28.90;;;;;;5014408;28;20537;-69
2023/05/09 05:18:54;;;;;;;23.35;4.88;;;25.40;29.10;;;;;;5015221;28;20135;-68
2023/05/09 05:21:21;;;;;;;13.52;4.20;;;25.50;29.00;;;;;;5015184;28;20026;-69
2023/05/09 05:23:48;;;;;;;15.27;3.92;;;25.30;29.10;;;;;;5014762;28;20081;-72
2023/05/09 05:26:14;;;;;;;18.13;3.65;;;25.30;29.10;;;;;;5013698;28;20055;-68
2023/05/09 05:28:40;;;;;;;20.65;4.30;;;25.20;28.90;;;;;;5013366;28;20061;-69
2023/05/09 05:31:07;;;;;;;15.63;3.47;;;25.20;28.90;;;;;;5011946;28;20421;-68
2023/05/09 05:33:33;;;;;;;16.05;4.07;;;25.20;28.70;;;;;;5015413;28;20073;-67
2023/05/09 05:36:00;;;;;;;16.30;3.92;;;25.20;29.00;;;;;;5015396;28;20060;-69
2023/05/09 05:38:26;;;;;;;12.55;3.80;;;25.20;28.10;;;;;;5011565;28;20076;-66
2023/05/09 05:40:52;;;;;;;16.30;3.67;;;25.10;28.30;;;;;;5012602;28;20104;-68
2023/05/09 05:43:19;;;;;;;11.40;4.13;;;25.20;28.20;;;;;;5012948;28;20022;-67
2023/05/09 05:45:45;;;;;;;17.73;3.67;;;25.20;28.50;;;;;;5013491;28;20039;-68
2023/05/09 05:48:12;;;;;;;16.83;4.50;;;25.10;28.70;;;;;;5015156;28;20080;-61
2023/05/09 05:50:38;;;;;;;19.33;3.95;;;25.00;28.60;;;;;;5014519;28;20039;-63
2023/05/09 05:53:05;;;;;;;14.75;3.55;;;25.20;28.80;;;;;;5013587;28;20063;-66
2023/05/09 05:55:31;;;;;;;12.25;4.10;;;25.30;29.00;;;;;;5015110;28;20424;-64
2023/05/09 05:57:58;;;;;;;12.27;3.55;;;25.40;28.50;;;;;;5013564;28;20150;-63
2023/05/09 06:00:24;;;;;;;9.88;3.40;;;25.70;28.70;;;;;;5015488;28;20072;-64
2023/05/09 06:02:51;;;;;;;18.63;3.33;;;25.80;28.90;;;;;;5018417;28;20060;-63
2023/05/09 06:05:17;;;;;;;19.58;3.13;;;25.70;29.20;;;;;;5014120;28;20078;-62
2023/05/09 06:07:44;;;;;;;17.00;2.90;;;25.90;29.00;;;;;;5015155;28;20064;-63
2023/05/09 06:10:10;;;;;;;16.48;3.17;;;25.80;28.80;;;;;;5013060;28;20060;-63
2023/05/09 06:12:37;;;;;;;12.68;2.97;;;25.80;29.40;;;;;;5011080;28;20073;-66
2023/05/09 06:15:05;;;;;;;19.83;3.15;;;25.90;29.70;;;;;;5011681;28;20123;-66
2023/05/09 06:17:31;;;;;;;13.07;2.92;;;25.50;29.80;;;;;;5011082;28;20088;-65
2023/05/09 06:19:57;;;;;;;15.85;3.17;;;25.10;30.30;;;;;;5009902;28;20149;-61
2023/05/09 06:22:24;;;;;;;10.70;3.10;;;25.10;30.40;;;;;;5009549;28;20134;-61
2023/05/09 06:24:50;;;;;;;16.15;3.00;;;25.10;29.70;;;;;;5009221;28;20155;-62
2023/05/09 06:27:17;;;;;;;13.88;2.85;;;25.00;29.50;;;;;;5010923;28;20067;-64
2023/05/09 06:29:43;;;;;;;10.55;2.20;;;24.80;29.70;;;;;;5008351;28;20075;-63
2023/05/09 06:32:09;;;;;;;16.15;3.17;;;24.70;29.60;;;;;;5010800;28;20524;-65
2023/05/09 06:34:36;;;;;;;10.65;2.50;;;24.50;29.60;;;;;;5009565;28;20481;-63
2023/05/09 06:37:02;;;;;;;12.93;3.03;;;24.30;29.80;;;;;;5010396;28;20056;-62
2023/05/09 06:39:28;;;;;;;12.23;2.80;;;24.20;30.00;;;;;;5009851;28;20060;-63
2023/05/09 06:41:55;;;;;;;14.13;3.00;;;24.20;30.00;;;;;;5010808;28;20056;-64
2023/05/09 06:44:21;;;;;;;18.15;3.35;;;24.10;29.70;;;;;;5008071;28;20522;-62
2023/05/09 06:46:48;;;;;;;9.32;2.90;;;24.20;29.60;;;;;;5012824;28;20062;-63
2023/05/09 06:49:14;;;;;;;13.00;2.80;;;24.30;28.80;;;;;;5009254;28;20599;-64
2023/05/09 06:51:40;;;;;;;6.90;2.38;;;24.20;28.60;;;;;;5008596;28;20513;-62
2023/05/09 06:54:07;;;;;;;12.68;2.33;;;24.20;28.40;;;;;;5008521;28;20037;-64
2023/05/09 06:56:33;;;;;;;13.23;3.22;;;24.20;28.50;;;;;;5012104;28;20080;-63
2023/05/09 06:59:00;;;;;;;11.10;2.63;;;24.20;27.90;;;;;;5011979;28;20091;-65
2023/05/09 07:01:26;;;;;;;15.50;3.03;;;24.20;28.50;;;;;;5010805;28;20415;-63
2023/05/09 07:03:52;;;;;;;7.75;2.58;;;24.10;28.70;;;;;;5012281;28;20074;-62
2023/05/09 07:06:19;;;;;;;7.53;2.58;;;24.10;28.50;;;;;;5012858;28;20141;-62
2023/05/09 07:08:45;;;;;;;13.20;2.75;;;24.20;28.50;;;;;;5010463;28;20067;-63
2023/05/09 07:11:12;;;;;;;13.93;2.53;;;24.10;28.60;;;;;;5010994;28;20070;-63
2023/05/09 07:13:38;;;;;;;9.60;2.85;;;24.00;28.50;;;;;;5010521;28;20506;-63
2023/05/09 07:16:05;;;;;;;9.82;2.78;;;23.90;28.60;;;;;;5011252;28;20436;-64
2023/05/09 07:18:31;;;;;;;11.90;2.92;;;23.80;28.40;;;;;;5011155;28;20135;-62
2023/05/09 07:20:57;;;;;;;10.70;2.53;;;23.70;28.50;;;;;;5011767;28;20086;-63
2023/05/09 07:23:25;;;;;;;9.85;2.65;;;23.70;28.60;;;;;;5011097;28;20160;-64
2023/05/09 07:25:58;;;;;;;14.95;2.25;;;23.60;28.80;;;;;;5012552;28;20056;-64
2023/05/09 07:28:25;;;;;;;15.05;3.17;;;23.70;29.40;;;;;;5013407;28;20121;-61
2023/05/09 07:30:51;;;;;;;8.32;2.25;;;23.50;29.00;;;;;;5012347;28;20130;-64
2023/05/09 07:33:18;;;;;;;11.63;2.00;;;23.50;28.80;;;;;;5013337;28;20073;-62
2023/05/09 07:35:44;;;;;;;7.80;2.67;;;23.60;28.80;;;;;;5011526;28;20160;-64
2023/05/09 07:38:11;;;;;;;8.40;2.83;;;23.50;28.50;;;;;;5011920;28;20542;-62
2023/05/09 07:40:37;;;;;;;7.82;2.40;;;23.40;28.50;;;;;;5010036;28;20482;-62
2023/05/09 07:43:04;;;;;;;15.88;3.03;;;23.40;28.30;;;;;;5011173;28;20077;-64
2023/05/09 07:45:30;;;;;;;13.60;2.95;;;23.40;28.10;;;;;;5012895;28;20546;-66
2023/05/09 07:47:56;;;;;;;10.45;2.65;;;23.40;28.30;;;;;;5015289;28;20482;-65
2023/05/09 07:50:23;;;;;;;9.50;2.70;;;23.40;28.70;;;;;;5011834;28;20127;-63
2023/05/09 07:52:50;;;;;;;8.57;2.55;;;23.30;28.00;;;;;;5011526;28;20168;-64
2023/05/09 07:55:17;;;;;;;12.48;2.97;;;23.30;28.10;;;;;;5010352;28;20064;-62
2023/05/09 07:57:43;;;;;;;7.10;2.20;;;23.30;28.20;;;;;;5013257;28;20097;-62
2023/05/09 08:00:10;;;;;;;13.48;2.90;;;23.30;28.10;;;;;;5013082;28;20077;-61
2023/05/09 08:02:37;;;;;;;8.45;2.50;;;23.20;28.10;;;;;;5015159;28;20475;-61
2023/05/09 08:05:03;;;;;;;14.30;2.40;;;23.10;28.10;;;;;;5013185;28;20096;-61
2023/05/09 08:07:30;;;;;;;14.02;3.03;;;23.10;28.30;;;;;;5014427;28;20060;-63
2023/05/09 08:09:56;;;;;;;12.93;3.00;;;23.00;28.10;;;;;;5015338;28;20077;-65
2023/05/09 08:12:22;;;;;;;12.80;2.40;;;23.00;28.00;;;;;;5015505;28;20608;-62
2023/05/09 08:14:49;;;;;;;9.95;3.03;;;23.00;27.90;;;;;;5015345;28;20432;-62
2023/05/09 08:17:16;;;;;;;14.50;2.47;;;23.00;28.20;;;;;;5012714;28;20078;-63
2023/05/09 08:19:42;;;;;;;10.43;2.67;;;23.00;28.10;;;;;;5016890;28;20076;-61
2023/05/09 08:22:15;;;;;;;13.10;2.67;;;23.00;28.10;;;;;;5014643;28;20108;-65
2023/05/09 08:24:41;;;;;;;10.68;2.25;;;23.00;28.10;;;;;;5015283;28;20117;-63
2023/05/09 08:27:07;;;;;;;8.27;2.13;;;23.00;28.10;;;;;;5016891;28;20547;-63
2023/05/09 08:29:34;;;;;;;10.35;2.78;;;23.00;28.40;;;;;;5014477;28;20092;-64
2023/05/09 08:32:00;;;;;;;8.48;2.67;;;23.00;28.20;;;;;;4998460;28;20077;-64
2023/05/09 08:34:27;;;;;;;23.70;9.85;;;22.90;28.30;;;;;;5012647;28;20109;-63
2023/05/09 08:36:53;;;;;;;34.13;9.80;;;22.80;28.80;;;;;;5013285;28;20065;-63
2023/05/09 08:39:20;;;;;;;25.58;9.93;;;22.70;28.30;;;;;;5011216;28;20079;-64
2023/05/09 08:41:47;;;;;;;8.18;2.03;;;22.70;28.40;;;;;;5014097;28;20056;-65
2023/05/09 08:44:13;;;;;;;7.32;2.10;;;22.60;28.50;;;;;;5015491;28;20143;-64
2023/05/09 08:46:43;;;;;;;10.93;2.20;;;22.60;28.40;;;;;;5013941;28;20070;-64
2023/05/09 08:49:10;;;;;;;8.55;2.30;;;22.50;28.50;;;;;;5015342;28;20094;-64
2023/05/09 08:51:37;;;;;;;10.18;2.33;;;22.50;28.40;;;;;;5012323;28;20104;-65
2023/05/09 08:54:04;;;;;;;16.23;2.53;;;22.50;28.50;;;;;;5015490;28;20076;-65
2023/05/09 08:56:31;;;;;;;10.43;2.60;;;22.50;28.60;;;;;;5012359;28;20082;-64
2023/05/09 08:58:58;;;;;;;13.50;2.72;;;22.40;28.70;;;;;;5011557;28;20077;-64
2023/05/09 09:01:27;;;;;;;8.10;2.30;;;22.30;29.10;;;;;;5014930;28;20069;-64
2023/05/09 09:03:54;;;;;;;6.78;2.00;;;22.10;29.20;;;;;;5013643;28;20145;-65
2023/05/09 09:06:24;;;;;;;10.93;2.33;;;22.10;29.10;;;;;;5013546;28;20065;-63
2023/05/09 09:08:54;;;;;;;8.93;2.03;;;22.10;28.80;;;;;;5012987;28;20661;-63
2023/05/09 09:11:21;;;;;;;13.50;2.13;;;22.00;28.70;;;;;;5013173;28;20462;-63
2023/05/09 09:13:53;;;;;;;8.27;2.30;;;21.90;28.70;;;;;;4991019;28;20528;-64
2023/05/09 09:16:21;;;;;;;12.60;2.17;;;21.90;28.50;;;;;;5011636;28;20079;-64
2023/05/09 09:18:50;;;;;;;9.48;2.53;;;21.80;28.80;;;;;;5013673;28;20125;-63
2023/05/09 09:21:18;;;;;;;11.32;2.70;;;21.80;29.00;;;;;;5013244;28;20062;-64
2023/05/09 09:23:46;;;;;;;12.07;2.40;;;21.80;28.90;;;;;;5012413;28;20078;-64
2023/05/09 09:26:13;;;;;;;9.02;2.47;;;21.80;28.60;;;;;;5014206;28;20075;-62
2023/05/09 09:28:39;;;;;;;9.05;2.45;;;21.80;28.60;;;;;;5011959;28;20488;-63
2023/05/09 09:31:23;;;;;;;12.63;2.25;;;21.70;28.70;;;;;;5015321;28;20078;-63
2023/05/09 09:33:50;;;;;;;9.90;2.75;;;21.70;28.70;;;;;;5014648;28;20082;-63
2023/05/09 09:36:27;;;;;;;6.95;1.95;;;21.70;28.60;;;;;;5013015;28;20724;-65
2023/05/09 09:38:59;;;;;;;;;;;21.70;28.60;;;;;;5013832;28;20073;-64
2023/05/09 09:41:38;;;;;;;9.85;2.17;;;21.70;28.60;;;;;;5013836;28;20378;-63
2023/05/09 09:44:12;;;;;;;13.40;2.47;;;21.70;28.30;;;;;;5012971;28;20065;-64
2023/05/09 09:46:49;;;;;;;6.07;1.98;;;21.70;28.30;;;;;;5012360;28;20149;-63
2023/05/09 09:49:18;;;;;;;12.98;2.40;;;21.70;28.20;;;;;;5015692;28;20085;-64
2023/05/09 09:51:48;;;;;;;12.38;2.40;;;21.70;28.20;;;;;;5013060;28;20078;-63
2023/05/09 09:54:14;;;;;;;10.93;2.42;;;21.60;28.20;;;;;;5013600;28;20080;-64
2023/05/09 09:56:44;;;;;;;10.65;2.20;;;21.60;28.10;;;;;;4994045;28;20449;-61
2023/05/09 09:59:15;;;;;;;6.85;2.30;;;21.60;28.00;;;;;;5010753;28;20553;-63
2023/05/09 10:02:02;;;;;;;9.00;2.10;;;21.60;27.80;;;;;;5012418;28;20056;-63
2023/05/09 10:04:34;;;;;;;5.43;2.42;;;21.60;27.90;;;;;;5013115;28;20071;-64
2023/05/09 10:07:03;;;;;;;10.30;2.65;;;21.60;27.40;;;;;;5010841;28;20073;-62
2023/05/09 10:09:30;;;;;;;9.90;2.50;;;21.70;27.00;;;;;;5010299;28;20066;-63
2023/05/09 10:12:00;;;;;;;10.77;2.28;;;21.80;26.90;;;;;;5010749;28;20082;-64
2023/05/09 10:14:29;;;;;;;10.10;2.40;;;21.70;27.00;;;;;;5012323;28;20490;-63
2023/05/09 10:16:57;;;;;;;9.48;2.42;;;21.70;28.40;;;;;;5010259;28;20475;-62
2023/05/09 10:19:27;;;;;;;17.05;2.53;;;21.80;27.20;;;;;;5011676;28;20416;-62
2023/05/09 10:22:07;;;;;;;9.68;2.22;;;21.70;27.30;;;;;;5012175;28;20474;-63
2023/05/09 10:24:55;;;;;;;13.40;2.55;;;21.70;27.60;;;;;;5011237;28;20078;-63
2023/05/09 10:27:25;;;;;;;9.88;2.10;;;21.70;27.70;;;;;;5012123;28;20041;-64
2023/05/09 10:30:06;;;;;;;6.75;1.92;;;21.70;27.70;;;;;;5010546;28;20092;-64
2023/05/09 10:32:59;;;;;;;10.77;2.15;;;21.60;28.10;;;;;;5011242;28;20456;-64
2023/05/09 10:35:30;;;;;;;11.57;2.30;;;21.60;27.60;;;;;;5010065;28;20522;-63
2023/05/09 10:37:56;;;;;;;11.02;2.15;;;21.50;27.50;;;;;;5011162;28;20093;-61
2023/05/09 10:40:23;;;;;;;9.15;2.38;;;21.50;27.60;;;;;;5012218;28;20094;-63
2023/05/09 10:42:50;;;;;;;17.02;2.30;;;21.50;27.80;;;;;;5010021;28;20063;-62
2023/05/09 10:45:16;;;;;;;14.15;2.63;;;21.50;28.10;;;;;;5010827;28;20026;-64
2023/05/09 10:47:43;;;;;;;7.35;2.13;;;21.40;27.80;;;;;;5011866;28;20103;-64
2023/05/09 10:50:14;;;;;;;11.23;2.95;;;21.40;27.70;;;;;;5011081;28;20047;-63
2023/05/09 10:53:14;;;;;;;9.05;2.70;;;21.30;27.70;;;;;;5010808;28;20094;-64
2023/05/09 10:55:46;;;;;;;9.73;2.40;;;21.30;27.20;;;;;;5010640;28;20079;-63
2023/05/09 10:58:26;;;;;;;12.48;2.25;;;21.30;27.30;;;;;;5010866;28;20078;-63
2023/05/09 11:00:55;;;;;;;13.82;2.38;;;21.30;27.50;;;;;;5009444;28;20070;-63
2023/05/09 11:03:23;;;;;;;9.63;2.30;;;21.20;27.40;;;;;;5011546;28;20042;-64
2023/05/09 11:05:52;;;;;;;10.43;2.58;;;21.20;27.40;;;;;;5011637;28;20080;-63
2023/05/09 11:08:24;;;;;;;10.35;2.60;;;21.20;28.00;;;;;;5011496;28;20070;-63
2023/05/09 11:10:51;;;;;;;14.65;2.70;;;21.20;27.70;;;;;;5011966;28;20586;-64
2023/05/09 11:13:23;;;;;;;7.53;2.15;;;21.20;28.30;;;;;;5010746;28;20071;-63
2023/05/09 11:16:01;;;;;;;9.75;2.15;;;21.20;28.20;;;;;;5010466;28;20074;-64
2023/05/09 11:18:28;;;;;;;9.32;2.30;;;21.10;28.40;;;;;;5010104;28;20435;-64
2023/05/09 11:20:55;;;;;;;8.73;2.35;;;21.10;28.20;;;;;;5011713;28;20086;-64
2023/05/09 11:23:26;;;;;;;12.07;2.03;;;21.00;29.40;;;;;;5012047;28;20437;-62
2023/05/09 11:25:52;;;;;;;6.70;1.88;;;20.90;29.60;;;;;;5010085;28;20535;-64
2023/05/09 11:28:31;;;;;;;9.82;2.42;;;20.90;29.60;;;;;;5009848;28;20060;-63
2023/05/09 11:31:10;;;;;;;6.95;2.50;;;20.80;38.20;;;;;;5009499;28;20126;-64
2023/05/09 11:33:38;;;;;;;12.27;2.72;;;20.70;29.50;;;;;;5010599;28;20514;-64
2023/05/09 11:36:32;;;;;;;6.40;2.08;;;20.70;29.50;;;;;;5011748;28;20039;-64
2023/05/09 11:39:09;;;;;;;13.38;2.38;;;20.50;29.60;;;;;;5014104;28;20058;-63
2023/05/09 11:41:40;;;;;;;10.65;2.40;;;20.50;30.20;;;;;;5013672;28;20637;-62
2023/05/09 11:44:19;;;;;;;12.10;2.78;;;20.50;30.40;;;;;;5015044;28;20062;-64
2023/05/09 11:46:48;;;;;;;7.88;2.22;;;20.50;30.60;;;;;;5013096;28;20079;-64
2023/05/09 11:49:15;;;;;;;9.07;2.30;;;20.50;30.90;;;;;;5013448;28;20070;-63
2023/05/09 11:51:42;;;;;;;19.33;2.83;;;20.40;31.10;;;;;;5014504;28;20079;-63
2023/05/09 11:54:10;;;;;;;10.82;2.55;;;20.30;31.90;;;;;;5013760;28;20475;-63
2023/05/09 11:56:39;;;;;;;12.57;2.45;;;20.20;31.70;;;;;;5012325;28;20096;-62
2023/05/09 11:59:07;;;;;;;14.65;2.78;;;20.30;31.90;;;;;;5015656;28;20083;-64
2023/05/09 12:01:34;;;;;;;6.18;1.95;;;20.00;32.00;;;;;;5015091;28;20528;-63
2023/05/09 12:04:01;;;;;;;10.38;2.25;;;19.90;32.10;;;;;;5015723;28;20158;-64
2023/05/09 12:06:28;;;;;;;13.93;2.80;;;19.80;32.10;;;;;;5014451;28;20068;-63
2023/05/09 12:08:58;;;;;;;8.98;2.08;;;19.70;32.10;;;;;;5015649;28;20064;-64
2023/05/09 12:11:25;;;;;;;18.88;2.95;;;19.60;32.60;;;;;;5014775;28;20071;-64
2023/05/09 12:13:52;;;;;;;7.45;2.22;;;19.60;32.60;;;;;;5016048;28;20077;-63
2023/05/09 12:16:19;;;;;;;10.80;2.17;;;19.70;32.90;;;;;;5014423;28;20167;-63
2023/05/09 12:18:51;;;;;;;10.57;2.35;;;19.70;32.50;;;;;;5015213;28;20181;-63
2023/05/09 12:21:18;;;;;;;13.88;2.35;;;19.80;31.70;;;;;;5015110;28;20087;-63
2023/05/09 12:23:48;;;;;;;7.40;1.75;;;19.80;31.90;;;;;;5014551;28;20168;-62
2023/05/09 12:26:14;;;;;;;11.65;1.83;;;19.80;32.00;;;;;;5012226;28;20223;-67
2023/05/09 12:28:41;;;;;;;8.90;1.80;;;19.80;31.10;;;;;;5012757;28;20068;-63
2023/05/09 12:31:08;;;;;;;15.75;2.10;;;19.80;31.30;;;;;;5012271;28;20068;-63
2023/05/09 12:33:37;;;;;;;11.98;3.15;;;19.70;31.80;;;;;;5014526;28;20620;-63
2023/05/09 12:36:05;;;;;;;9.50;2.58;;;19.70;31.80;;;;;;5015764;28;20501;-63
2023/05/09 12:38:32;;;;;;;13.10;2.40;;;19.70;32.20;;;;;;5013405;28;20096;-64
2023/05/09 12:41:10;;;;;;;16.67;2.85;;;19.70;32.30;;;;;;4994483;28;20073;-63
2023/05/09 12:43:41;;;;;;;11.25;2.35;;;19.60;32.20;;;;;;5012615;28;20117;-65
2023/05/09 12:46:07;;;;;;;13.88;2.30;;;19.50;32.40;;;;;;5013396;28;20066;-63
2023/05/09 12:48:38;;;;;;;17.48;2.80;;;19.50;32.50;;;;;;5012557;28;20639;-64